createdAt,value
2023-04-14T00:00:09.430Z,3.70
2023-04-14T00:02:46.238Z,3.80
2023-04-14T00:05:15.098Z,3.20
2023-04-14T00:07:44.297Z,3.50
2023-04-14T00:10:12.769Z,3.70
2023-04-14T00:12:41.354Z,3.60
2023-04-14T00:15:10.672Z,3.60
2023-04-14T00:17:40.139Z,3.50
2023-04-14T00:20:10.191Z,3.90
2023-04-14T00:22:38.780Z,3.20
2023-04-14T00:25:08.679Z,3.40
2023-04-14T00:27:38.104Z,3.40
2023-04-14T00:30:16.613Z,4.00
2023-04-14T00:32:46.656Z,3.60
2023-04-14T00:35:15.424Z,3.20
2023-04-14T00:37:46.676Z,3.20
2023-04-14T00:40:15.461Z,3.00
2023-04-14T00:42:44.793Z,3.70
2023-04-14T00:45:13.450Z,3.40
2023-04-14T00:47:47.210Z,3.20
2023-04-14T00:50:18.155Z,3.40
2023-04-14T00:52:48.122Z,3.50
2023-04-14T00:55:19.398Z,3.30
2023-04-14T00:57:47.756Z,3.20
2023-04-14T01:00:17.571Z,3.80
2023-04-14T01:02:47.441Z,3.10
2023-04-14T01:05:17.184Z,3.20
2023-04-14T01:07:48.678Z,3.70
2023-04-14T01:10:17.238Z,3.90
2023-04-14T01:13:09.075Z,3.60
2023-04-14T01:15:53.048Z,3.30
2023-04-14T01:18:40.928Z,3.60
2023-04-14T01:21:20.704Z,3.00
2023-04-14T01:24:15.104Z,3.00
2023-04-14T01:26:43.991Z,3.80
2023-04-14T01:29:30.702Z,2.30
2023-04-14T01:32:05.854Z,3.60
2023-04-14T01:34:54.307Z,3.70
2023-04-14T01:37:35.885Z,3.30
2023-04-14T01:42:36.446Z,3.60
2023-04-14T01:45:11.269Z,3.90
2023-04-14T01:47:41.300Z,4.00
2023-04-14T01:50:11.128Z,4.10
2023-04-14T01:52:43.478Z,4.50
2023-04-14T01:57:42.598Z,3.70
2023-04-14T02:00:11.695Z,4.20
2023-04-14T02:02:46.133Z,4.70
2023-04-14T02:05:15.932Z,4.20
2023-04-14T02:07:47.292Z,4.30
2023-04-14T02:10:16.484Z,4.50
2023-04-14T02:12:53.848Z,4.30
2023-04-14T02:15:40.388Z,3.90
2023-04-14T02:18:09.591Z,4.60
2023-04-14T02:20:44.767Z,4.70
2023-04-14T02:23:28.670Z,5.10
2023-04-14T02:26:12.523Z,4.80
2023-04-14T02:28:50.434Z,4.90
2023-04-14T02:31:22.117Z,5.00
2023-04-14T02:33:53.845Z,4.60
2023-04-14T02:36:40.446Z,4.80
2023-04-14T02:39:14.675Z,4.80
2023-04-14T02:41:44.683Z,4.90
2023-04-14T02:44:21.520Z,5.00
2023-04-14T02:47:07.178Z,5.40
2023-04-14T02:49:40.675Z,5.00
2023-04-14T02:52:12.311Z,5.30
2023-04-14T02:54:42.879Z,5.60
2023-04-14T02:57:11.640Z,6.00
2023-04-14T02:59:43.297Z,5.30
2023-04-14T03:02:12.980Z,5.10
2023-04-14T03:04:45.695Z,5.20
2023-04-14T03:07:23.909Z,5.50
2023-04-14T03:09:52.495Z,5.60
2023-04-14T03:12:30.199Z,5.90
2023-04-14T03:14:59.500Z,5.90
2023-04-14T03:17:29.023Z,5.30
2023-04-14T03:19:58.857Z,5.20
2023-04-14T03:24:59.270Z,5.80
2023-04-14T03:27:30.734Z,6.50
2023-04-14T03:30:02.312Z,5.30
2023-04-14T03:32:37.086Z,5.60
2023-04-14T03:35:08.162Z,4.70
2023-04-14T03:37:38.627Z,5.30
2023-04-14T03:40:11.469Z,5.90
2023-04-14T03:42:44.961Z,6.30
2023-04-14T03:45:14.487Z,5.40
2023-04-14T03:47:44.220Z,4.70
2023-04-14T03:50:15.752Z,4.00
2023-04-14T03:52:44.437Z,5.90
2023-04-14T03:55:13.949Z,5.40
2023-04-14T03:57:44.277Z,5.90
2023-04-14T04:00:16.045Z,5.20
2023-04-14T04:02:47.936Z,5.10
2023-04-14T04:05:17.107Z,5.40
2023-04-14T04:07:45.706Z,5.50
2023-04-14T04:10:16.574Z,5.50
2023-04-14T04:12:45.230Z,5.60
2023-04-14T04:15:22.427Z,5.40
2023-04-14T04:17:51.549Z,5.60
2023-04-14T04:20:20.091Z,5.50
2023-04-14T04:22:51.465Z,5.70
2023-04-14T04:27:54.865Z,5.20
2023-04-14T04:30:23.657Z,5.50
2023-04-14T04:32:52.311Z,5.80
2023-04-14T04:35:20.827Z,6.40
2023-04-14T04:37:50.237Z,6.30
2023-04-14T04:40:19.124Z,6.60
2023-04-14T04:42:50.277Z,6.50
2023-04-14T04:46:07.098Z,5.80
2023-04-14T04:48:36.501Z,6.10
2023-04-14T04:51:06.012Z,6.80
2023-04-14T04:53:34.899Z,7.10
2023-04-14T04:56:08.612Z,6.20
2023-04-14T04:58:39.041Z,5.60
2023-04-14T05:01:11.378Z,5.80
2023-04-14T05:03:42.767Z,6.00
2023-04-14T05:06:11.255Z,6.20
2023-04-14T05:08:41.578Z,6.50
2023-04-14T05:11:10.271Z,6.80
2023-04-14T05:13:38.962Z,6.10
2023-04-14T05:16:11.200Z,6.40
2023-04-14T05:18:43.203Z,7.20
2023-04-14T05:21:15.747Z,6.90
2023-04-14T05:23:44.913Z,7.10
2023-04-14T05:28:50.047Z,6.50
2023-04-14T05:31:18.561Z,7.00
2023-04-14T05:33:47.321Z,7.00
2023-04-14T05:36:15.898Z,7.10
2023-04-14T05:38:44.904Z,6.40
2023-04-14T05:41:13.482Z,7.10
2023-04-14T05:43:43.105Z,6.60
2023-04-14T05:46:11.648Z,7.30
2023-04-14T05:48:41.819Z,7.20
2023-04-14T05:51:10.291Z,7.00
2023-04-14T05:53:38.780Z,7.00
2023-04-14T05:56:10.331Z,7.30
2023-04-14T05:58:38.709Z,7.00
2023-04-14T06:01:10.574Z,7.40
2023-04-14T06:03:41.119Z,7.50
2023-04-14T06:06:09.895Z,7.40
2023-04-14T06:08:39.419Z,7.40
2023-04-14T06:11:08.210Z,8.30
2023-04-14T06:13:36.887Z,7.80
2023-04-14T06:16:06.169Z,8.10
2023-04-14T06:18:42.557Z,7.60
2023-04-14T06:21:12.379Z,7.40
2023-04-14T06:23:41.267Z,8.40
2023-04-14T06:26:09.650Z,7.40
2023-04-14T06:28:38.343Z,8.00
2023-04-14T06:31:07.242Z,6.70
2023-04-14T06:33:35.721Z,6.80
2023-04-14T06:36:04.741Z,6.80
2023-04-14T06:38:34.116Z,7.20
2023-04-14T06:41:02.523Z,7.00
2023-04-14T06:43:31.699Z,7.00
2023-04-14T06:46:00.334Z,7.20
2023-04-14T06:48:29.081Z,7.00
2023-04-14T06:50:57.662Z,7.40
2023-04-14T06:53:26.673Z,6.90
2023-04-14T06:56:02.426Z,7.00
2023-04-14T06:58:31.252Z,7.50
2023-04-14T07:01:01.794Z,7.40
2023-04-14T07:03:31.437Z,7.70
2023-04-14T07:06:07.888Z,7.40
2023-04-14T07:08:36.795Z,6.50
2023-04-14T07:11:07.306Z,7.60
2023-04-14T07:13:36.825Z,7.70
2023-04-14T07:16:08.491Z,7.30
2023-04-14T07:18:37.415Z,8.00
2023-04-14T07:21:05.786Z,8.00
2023-04-14T07:23:35.192Z,8.40
2023-04-14T07:26:03.895Z,8.70
2023-04-14T07:28:32.893Z,7.80
2023-04-14T07:31:11.020Z,8.50
2023-04-14T07:33:40.605Z,8.20
2023-04-14T07:36:09.806Z,8.80
2023-04-14T07:38:38.180Z,7.80
2023-04-14T07:41:07.279Z,8.40
2023-04-14T07:43:36.368Z,8.40
2023-04-14T07:46:07.803Z,8.20
2023-04-14T07:51:09.618Z,7.90
2023-04-14T07:53:43.732Z,8.50
2023-04-14T07:56:12.978Z,9.00
2023-04-14T07:58:43.042Z,9.20
2023-04-14T08:01:11.523Z,8.50
2023-04-14T08:03:43.576Z,9.80
2023-04-14T08:06:13.707Z,8.40
2023-04-14T08:08:43.626Z,9.30
2023-04-14T08:11:12.616Z,8.80
2023-04-14T08:13:41.041Z,10.00
2023-04-14T08:16:09.711Z,9.90
2023-04-14T08:21:09.934Z,8.80
2023-04-14T08:23:39.250Z,10.00
2023-04-14T08:26:08.529Z,9.90
2023-04-14T08:28:37.420Z,9.50
2023-04-14T08:31:06.010Z,8.60
2023-04-14T08:33:35.927Z,8.90
2023-04-14T08:36:04.819Z,9.20
2023-04-14T08:38:35.979Z,9.70
2023-04-14T08:41:04.960Z,9.40
2023-04-14T08:43:33.544Z,8.30
2023-04-14T08:46:07.535Z,9.10
2023-04-14T08:48:36.761Z,8.90
2023-04-14T08:51:17.019Z,9.00
2023-04-14T08:53:46.318Z,8.70
2023-04-14T08:56:17.555Z,8.60
2023-04-14T09:01:15.701Z,10.10
2023-04-14T09:03:46.048Z,9.20
2023-04-14T09:06:14.676Z,9.20
2023-04-14T09:08:48.697Z,9.20
2023-04-14T09:11:17.989Z,7.80
2023-04-14T09:13:47.810Z,10.10
2023-04-14T09:16:17.983Z,9.60
2023-04-14T09:18:47.849Z,9.80
2023-04-14T09:21:30.335Z,10.10
2023-04-14T09:24:11.602Z,9.70
2023-04-14T09:26:40.940Z,9.70
2023-04-14T09:29:09.430Z,10.40
2023-04-14T09:31:38.614Z,10.60
2023-04-14T09:34:16.355Z,10.30
2023-04-14T09:37:06.698Z,8.60
2023-04-14T09:39:37.049Z,10.00
2023-04-14T09:42:05.748Z,10.20
2023-04-14T09:44:34.630Z,11.00
2023-04-14T09:47:08.236Z,9.70
2023-04-14T09:49:37.655Z,10.00
2023-04-14T09:52:11.655Z,10.10
2023-04-14T09:54:40.341Z,10.30
2023-04-14T09:57:08.932Z,9.20
2023-04-14T09:59:40.795Z,9.40
2023-04-14T10:04:38.399Z,10.80
2023-04-14T10:07:12.494Z,10.10
2023-04-14T10:09:42.003Z,9.70
2023-04-14T10:12:14.684Z,9.60
2023-04-14T10:14:44.266Z,10.10
2023-04-14T10:17:13.904Z,9.60
2023-04-14T10:19:42.391Z,9.70
2023-04-14T10:22:11.084Z,9.70
2023-04-14T10:24:40.688Z,10.00
2023-04-14T10:27:09.486Z,10.00
2023-04-14T10:29:41.039Z,9.20
2023-04-14T10:32:09.929Z,10.40
2023-04-14T10:34:39.136Z,10.20
2023-04-14T10:37:16.428Z,10.60
2023-04-14T10:39:44.806Z,9.80
2023-04-14T10:42:13.599Z,9.90
2023-04-14T10:44:41.979Z,9.50
2023-04-14T10:47:11.154Z,10.10
2023-04-14T10:49:41.503Z,9.60
2023-04-14T10:52:13.058Z,9.20
2023-04-14T10:55:01.482Z,9.50
2023-04-14T10:57:30.512Z,9.90
2023-04-14T11:00:04.215Z,10.00
2023-04-14T11:02:35.444Z,9.30
2023-04-14T11:05:12.960Z,9.30
2023-04-14T11:07:45.567Z,9.30
2023-04-14T11:10:17.050Z,9.10
2023-04-14T11:12:46.220Z,9.50
2023-04-14T11:15:18.777Z,8.90
2023-04-14T11:17:49.512Z,9.00
2023-04-14T11:22:54.467Z,9.60
2023-04-14T11:25:24.872Z,9.80
2023-04-14T11:27:53.994Z,9.00
2023-04-14T11:30:23.608Z,9.90
2023-04-14T11:32:54.399Z,9.30
2023-04-14T11:35:27.107Z,10.90
2023-04-14T11:37:58.919Z,9.20
2023-04-14T11:40:27.803Z,10.10
2023-04-14T11:42:59.172Z,9.70
2023-04-14T11:45:31.339Z,10.20
2023-04-14T11:48:02.123Z,9.40
2023-04-14T11:50:32.699Z,9.40
2023-04-14T11:55:31.712Z,9.60
2023-04-14T11:58:00.483Z,10.00
2023-04-14T12:00:29.273Z,9.50
2023-04-14T12:02:58.924Z,8.90
2023-04-14T12:05:31.873Z,9.00
2023-04-14T12:08:05.268Z,9.10
2023-04-14T12:10:36.686Z,9.40
2023-04-14T12:13:06.762Z,9.30
2023-04-14T12:15:39.893Z,8.50
2023-04-14T12:18:14.062Z,8.60
2023-04-14T12:20:43.474Z,9.10
2023-04-14T12:23:11.944Z,9.30
2023-04-14T12:25:46.546Z,8.30
2023-04-14T12:30:55.935Z,8.60
2023-04-14T12:33:27.601Z,8.90
2023-04-14T12:36:03.646Z,8.50
2023-04-14T12:38:32.749Z,8.30
2023-04-14T12:41:01.365Z,8.00
2023-04-14T12:43:37.294Z,8.30
2023-04-14T12:46:06.489Z,8.00
2023-04-14T12:48:48.841Z,9.00
2023-04-14T12:51:20.783Z,7.90
2023-04-14T12:53:50.611Z,7.90
2023-04-14T12:58:51.709Z,7.60
2023-04-14T13:01:21.176Z,8.40
2023-04-14T13:03:52.745Z,7.50
2023-04-14T13:06:23.126Z,7.00
2023-04-14T13:08:53.104Z,8.00
2023-04-14T13:11:22.444Z,6.10
2023-04-14T13:13:56.372Z,7.80
2023-04-14T13:16:26.334Z,7.00
2023-04-14T13:21:35.340Z,8.10
2023-04-14T13:24:04.787Z,7.80
2023-04-14T13:26:33.947Z,8.00
2023-04-14T13:29:08.991Z,7.60
2023-04-14T13:31:40.819Z,7.40
2023-04-14T13:34:11.084Z,7.70
2023-04-14T13:36:39.673Z,7.80
2023-04-14T13:39:08.051Z,8.00
2023-04-14T13:41:36.936Z,7.90
2023-04-14T13:44:06.035Z,7.20
2023-04-14T13:46:40.923Z,7.20
2023-04-14T13:49:13.151Z,7.60
2023-04-14T13:51:41.624Z,7.80
2023-04-14T13:54:10.314Z,7.40
2023-04-14T13:56:39.158Z,8.00
2023-04-14T13:59:08.404Z,7.90
2023-04-14T14:01:37.326Z,7.70
2023-04-14T14:06:36.520Z,8.10
2023-04-14T14:09:06.627Z,7.20
2023-04-14T14:11:42.394Z,7.10
2023-04-14T14:14:13.125Z,9.10
2023-04-14T14:16:41.902Z,7.90
2023-04-14T14:19:17.200Z,10.90
2023-04-14T14:21:47.379Z,7.30
2023-04-14T14:24:16.375Z,7.20
2023-04-14T14:26:47.313Z,6.60
2023-04-14T14:29:18.153Z,7.70
2023-04-14T14:31:46.878Z,8.00
2023-04-14T14:34:16.347Z,7.50
2023-04-14T14:36:44.724Z,6.80
2023-04-14T14:39:17.195Z,7.70
2023-04-14T14:41:48.244Z,7.20
2023-04-14T14:44:18.159Z,8.00
2023-04-14T14:46:47.510Z,7.20
2023-04-14T14:49:16.669Z,7.80
2023-04-14T14:51:45.654Z,7.30
2023-04-14T14:54:14.246Z,7.20
2023-04-14T14:56:43.397Z,8.10
2023-04-14T14:59:11.875Z,7.20
2023-04-14T15:01:42.557Z,8.10
2023-04-14T15:04:12.790Z,7.10
2023-04-14T15:06:41.222Z,8.00
2023-04-14T15:09:10.628Z,7.40
2023-04-14T15:11:39.017Z,8.00
2023-04-14T15:14:07.927Z,9.60
2023-04-14T15:16:37.526Z,6.90
2023-04-14T15:19:13.639Z,7.60
2023-04-14T15:21:43.528Z,8.00
2023-04-14T15:24:12.118Z,8.50
2023-04-14T15:26:47.582Z,7.60
2023-04-14T15:29:25.203Z,8.00
2023-04-14T15:31:54.586Z,7.50
2023-04-14T15:34:23.787Z,8.20
2023-04-14T15:36:54.115Z,7.20
2023-04-14T15:39:22.593Z,8.10
2023-04-14T15:42:29.074Z,7.10
2023-04-14T15:44:58.052Z,6.90
2023-04-14T15:47:28.696Z,6.70
2023-04-14T15:50:08.516Z,7.10
2023-04-14T15:52:40.042Z,7.90
2023-04-14T15:55:09.584Z,7.40
2023-04-14T15:57:41.054Z,7.00
2023-04-14T16:00:10.109Z,6.90
2023-04-14T16:02:43.932Z,6.70
2023-04-14T16:05:16.822Z,7.50
2023-04-14T16:07:46.764Z,7.70
2023-04-14T16:10:15.963Z,7.30
2023-04-14T16:12:44.652Z,5.80
2023-04-14T16:15:14.059Z,7.10
2023-04-14T16:17:44.019Z,7.80
2023-04-14T16:20:12.981Z,7.40
2023-04-14T16:22:42.886Z,7.80
2023-04-14T16:25:11.250Z,7.60
2023-04-14T16:27:39.959Z,8.50
2023-04-14T16:30:08.845Z,8.30
2023-04-14T16:32:51.284Z,8.00
2023-04-14T16:35:19.742Z,8.30
2023-04-14T16:37:49.248Z,7.80
2023-04-14T16:40:18.348Z,7.40
2023-04-14T16:42:47.544Z,7.10
2023-04-14T16:45:19.196Z,7.30
2023-04-14T16:47:48.845Z,7.30
2023-04-14T16:50:17.603Z,7.50
2023-04-14T16:52:46.394Z,7.20
2023-04-14T16:55:16.108Z,6.60
2023-04-14T16:57:47.846Z,6.70
2023-04-14T17:00:17.885Z,6.40
2023-04-14T17:02:47.528Z,7.00
2023-04-14T17:05:16.863Z,7.20
2023-04-14T17:07:49.649Z,7.30
2023-04-14T17:10:18.450Z,7.20
2023-04-14T17:12:47.580Z,6.90
2023-04-14T17:15:18.582Z,6.60
2023-04-14T17:17:47.100Z,7.20
2023-04-14T17:20:15.847Z,7.00
2023-04-14T17:22:44.640Z,7.40
2023-04-14T17:25:13.120Z,6.90
2023-04-14T17:27:41.608Z,7.60
2023-04-14T17:30:15.719Z,7.00
2023-04-14T17:32:45.870Z,5.70
2023-04-14T17:35:14.426Z,7.80
2023-04-14T17:37:48.026Z,7.30
2023-04-14T17:40:16.509Z,7.40
2023-04-14T17:42:44.993Z,7.80
2023-04-14T17:45:13.575Z,7.90
2023-04-14T17:47:42.117Z,8.10
2023-04-14T17:50:16.092Z,7.80
2023-04-14T17:52:47.318Z,7.10
2023-04-14T17:55:16.622Z,7.20
2023-04-14T17:58:05.290Z,8.30
2023-04-14T18:00:34.169Z,8.60
2023-04-14T18:03:04.558Z,7.70
2023-04-14T18:05:33.082Z,8.50
2023-04-14T18:08:01.778Z,8.50
2023-04-14T18:10:33.274Z,8.70
2023-04-14T18:13:02.013Z,8.50
2023-04-14T18:15:30.604Z,8.60
2023-04-14T18:18:05.662Z,8.80
2023-04-14T18:20:34.625Z,9.50
2023-04-14T18:23:03.208Z,8.60
2023-04-14T18:28:07.448Z,7.40
2023-04-14T18:30:35.999Z,7.40
2023-04-14T18:33:04.454Z,7.30
2023-04-14T18:35:34.638Z,7.00
2023-04-14T18:38:03.019Z,7.10
2023-04-14T18:40:32.800Z,7.40
2023-04-14T18:43:01.840Z,7.70
2023-04-14T18:45:30.512Z,6.10
2023-04-14T18:48:03.137Z,7.20
2023-04-14T18:50:32.905Z,7.20
2023-04-14T18:53:01.388Z,5.70
2023-04-14T18:55:44.684Z,6.50
2023-04-14T19:00:45.262Z,6.80
2023-04-14T19:03:15.884Z,7.20
2023-04-14T19:05:45.207Z,6.70
2023-04-14T19:08:15.299Z,6.70
2023-04-14T19:10:49.554Z,6.80
2023-04-14T19:13:18.438Z,6.60
2023-04-14T19:15:47.259Z,7.50
2023-04-14T19:18:17.185Z,7.20
2023-04-14T19:20:50.235Z,7.00
2023-04-14T19:23:19.746Z,6.80
2023-04-14T19:25:49.044Z,4.70
2023-04-14T19:28:18.568Z,6.70
2023-04-14T19:30:48.738Z,6.90
2023-04-14T19:33:17.462Z,6.60
2023-04-14T19:35:46.152Z,6.80
2023-04-14T19:40:50.666Z,6.60
2023-04-14T19:43:20.403Z,6.40
2023-04-14T19:45:52.997Z,5.80
2023-04-14T19:48:23.897Z,5.60
2023-04-14T19:50:54.940Z,6.20
2023-04-14T19:53:24.524Z,5.60
2023-04-14T19:55:57.157Z,5.30
2023-04-14T19:58:27.060Z,5.20
2023-04-14T20:03:28.641Z,5.60
2023-04-14T20:05:57.446Z,5.10
2023-04-14T20:08:27.631Z,5.10
2023-04-14T20:10:57.994Z,4.90
2023-04-14T20:13:30.873Z,4.50
2023-04-14T20:16:01.716Z,4.80
2023-04-14T20:18:34.197Z,4.60
2023-04-14T20:21:02.990Z,4.80
2023-04-14T20:23:33.003Z,4.80
2023-04-14T20:26:07.020Z,4.50
2023-04-14T20:28:36.930Z,4.80
2023-04-14T20:31:06.986Z,4.90
2023-04-14T20:33:37.089Z,4.80
2023-04-14T20:38:35.167Z,4.80
2023-04-14T20:41:05.288Z,5.10
2023-04-14T20:43:34.620Z,3.60
2023-04-14T20:46:04.322Z,5.20
2023-04-14T20:48:35.659Z,5.40
2023-04-14T20:51:04.987Z,4.90
2023-04-14T20:53:35.498Z,5.30
2023-04-14T20:56:07.759Z,4.90
2023-04-14T20:58:37.368Z,5.10
2023-04-14T21:01:06.449Z,5.30
2023-04-14T21:03:36.904Z,4.90
2023-04-14T21:06:06.379Z,4.30
2023-04-14T21:08:35.404Z,4.80
2023-04-14T21:11:17.109Z,5.10
2023-04-14T21:15:25.132Z,5.20
2023-04-14T21:16:37.433Z,5.00
2023-04-14T21:19:06.662Z,4.80
2023-04-14T21:21:43.181Z,4.80
2023-04-14T21:24:12.274Z,5.10
2023-04-14T21:26:40.657Z,5.00
2023-04-14T21:29:14.769Z,4.60
2023-04-14T21:31:45.427Z,4.70
2023-04-14T21:34:14.446Z,5.30
2023-04-14T21:36:44.421Z,4.80
2023-04-14T21:41:42.898Z,5.30
2023-04-14T21:44:11.324Z,4.80
2023-04-14T21:46:39.884Z,4.80
2023-04-14T21:49:09.803Z,5.00
2023-04-14T21:51:38.288Z,4.70
2023-04-14T21:54:07.289Z,4.60
2023-04-14T21:56:35.868Z,5.20
2023-04-14T21:59:08.369Z,4.80
2023-04-14T22:01:37.309Z,4.50
2023-04-14T22:04:06.753Z,4.70
2023-04-14T22:06:38.401Z,4.80
2023-04-14T22:09:10.366Z,4.70
2023-04-14T22:11:39.073Z,4.90
2023-04-14T22:14:07.638Z,4.20
2023-04-14T22:16:37.481Z,4.30
2023-04-14T22:19:09.328Z,4.40
2023-04-14T22:21:38.019Z,4.40
2023-04-14T22:24:07.419Z,3.90
2023-04-14T22:26:36.711Z,4.30
2023-04-14T22:29:05.909Z,4.20
2023-04-14T22:31:34.300Z,4.40
2023-04-14T22:34:04.205Z,4.40
2023-04-14T22:36:33.201Z,3.70
2023-04-14T22:39:01.766Z,4.10
2023-04-14T22:41:30.685Z,4.40
2023-04-14T22:43:59.467Z,4.70
2023-04-14T22:46:31.171Z,4.20
2023-04-14T22:48:59.836Z,4.70
2023-04-14T22:51:28.812Z,5.50
2023-04-14T22:53:59.949Z,4.60
2023-04-14T22:58:59.416Z,4.10
2023-04-14T23:03:59.761Z,5.50
2023-04-14T23:06:28.202Z,5.10
2023-04-14T23:08:59.833Z,4.70
2023-04-14T23:11:32.234Z,4.80
2023-04-14T23:14:01.222Z,4.40
2023-04-14T23:16:35.436Z,5.20
2023-04-14T23:19:07.295Z,5.10
2023-04-14T23:21:36.088Z,4.60
2023-04-14T23:24:05.289Z,5.20
2023-04-14T23:29:03.879Z,4.30
2023-04-14T23:31:32.442Z,5.40
2023-04-14T23:34:07.814Z,5.10
2023-04-14T23:36:37.315Z,5.50
2023-04-14T23:39:05.955Z,5.70
2023-04-14T23:41:36.941Z,4.90
2023-04-14T23:44:06.651Z,4.70
2023-04-14T23:46:35.368Z,5.60
2023-04-14T23:49:11.083Z,5.20
2023-04-14T23:51:53.393Z,5.30
2023-04-14T23:54:21.980Z,6.00
2023-04-14T23:56:51.895Z,6.10
2023-04-14T23:59:20.377Z,5.30
